Rechercher aéroport 
image banner adimage banner adimage banner ad
image banner ad

CA11 - Bodad

Situé à Chilcoot, United States

ICAO - CA11, IATA -

Données fournies par Airmate  

Information générale

Coordonnées: N39°59'50" W120°13'1"
Élévation : 5909 feet MSL.
 
Voir autres Aéroports à California

Données opérationnelles

Special qualification required
Heure actuelle UTC:
Heure actuelle locale:
Météo à : KRTS - Reno/Stead ( 47 km )
METAR: KRTS 251635Z AUTO 00000KT 1 1/4SM HZ CLR 25/01 A3018 RMK AO2
Voir NOTAMs / SUP AIP / TFR affectant cet aéroport [VIEW]
Fréquences de communication: [VIEW]

Pistes:

Identifiant RWYQFULongueur (ft)Largeur (ft)SurfaceLDA (ft)
15103240GRASS
33103240GRASS

Coordonnées de l'aéroport

Adresse: Chilcoot United States

Vue satellite de CA11